sensor_id;sensor_type;location;lat;lon;timestamp;P1;P2;P0
47982;PMS5003;33751;50.816;-1.214;2022-09-03T00:02:32;24;17;
47982;PMS5003;33751;50.816;-1.214;2022-09-03T00:05:07;20;19;
47982;PMS5003;33751;50.816;-1.214;2022-09-03T00:07:42;19;17;
47982;PMS5003;33751;50.816;-1.214;2022-09-03T00:10:18;28;21;
47982;PMS5003;33751;50.816;-1.214;2022-09-03T00:12:51;28;21;
47982;PMS5003;33751;50.816;-1.214;2022-09-03T00:15:22;22;17;
47982;PMS5003;33751;50.816;-1.214;2022-09-03T00:17:52;19;18;
47982;PMS5003;33751;50.816;-1.214;2022-09-03T00:20:22;20;18;
47982;PMS5003;33751;50.816;-1.214;2022-09-03T00:22:54;22;18;
47982;PMS5003;33751;50.816;-1.214;2022-09-03T00:25:25;29;20;
47982;PMS5003;33751;50.816;-1.214;2022-09-03T00:27:59;22;21;
47982;PMS5003;33751;50.816;-1.214;2022-09-03T00:30:31;22;20;
47982;PMS5003;33751;50.816;-1.214;2022-09-03T00:33:01;17;17;
47982;PMS5003;33751;50.816;-1.214;2022-09-03T00:35:33;28;21;
47982;PMS5003;33751;50.816;-1.214;2022-09-03T00:38:07;28;19;
47982;PMS5003;33751;50.816;-1.214;2022-09-03T00:40:37;27;18;
47982;PMS5003;33751;50.816;-1.214;2022-09-03T00:43:19;20;19;
47982;PMS5003;33751;50.816;-1.214;2022-09-03T00:45:53;19;18;
47982;PMS5003;33751;50.816;-1.214;2022-09-03T00:48:29;27;18;
47982;PMS5003;33751;50.816;-1.214;2022-09-03T00:51:09;18;18;
47982;PMS5003;33751;50.816;-1.214;2022-09-03T00:53:44;17;15;
47982;PMS5003;33751;50.816;-1.214;2022-09-03T00:56:20;19;19;
47982;PMS5003;33751;50.816;-1.214;2022-09-03T00:58:57;19;18;
47982;PMS5003;33751;50.816;-1.214;2022-09-03T01:01:34;19;18;
47982;PMS5003;33751;50.816;-1.214;2022-09-03T01:04:08;21;19;
47982;PMS5003;33751;50.816;-1.214;2022-09-03T01:06:53;19;19;
47982;PMS5003;33751;50.816;-1.214;2022-09-03T01:09:31;21;19;
47982;PMS5003;33751;50.816;-1.214;2022-09-03T01:12:09;24;20;
47982;PMS5003;33751;50.816;-1.214;2022-09-03T01:14:46;26;18;
47982;PMS5003;33751;50.816;-1.214;2022-09-03T01:17:28;27;17;
47982;PMS5003;33751;50.816;-1.214;2022-09-03T01:20:06;24;21;
47982;PMS5003;33751;50.816;-1.214;2022-09-03T01:22:50;25;19;
47982;PMS5003;33751;50.816;-1.214;2022-09-03T01:25:52;21;19;
47982;PMS5003;33751;50.816;-1.214;2022-09-03T01:28:28;24;23;
47982;PMS5003;33751;50.816;-1.214;2022-09-03T01:31:11;27;23;
47982;PMS5003;33751;50.816;-1.214;2022-09-03T01:33:49;30;24;
47982;PMS5003;33751;50.816;-1.214;2022-09-03T01:36:25;29;24;
47982;PMS5003;33751;50.816;-1.214;2022-09-03T01:39:00;17;16;
47982;PMS5003;33751;50.816;-1.214;2022-09-03T01:41:33;35;22;
47982;PMS5003;33751;50.816;-1.214;2022-09-03T01:44:13;28;22;
47982;PMS5003;33751;50.816;-1.214;2022-09-03T01:46:48;28;21;
47982;PMS5003;33751;50.816;-1.214;2022-09-03T01:49:26;22;21;
47982;PMS5003;33751;50.816;-1.214;2022-09-03T01:52:01;23;21;
47982;PMS5003;33751;50.816;-1.214;2022-09-03T01:54:39;30;23;
47982;PMS5003;33751;50.816;-1.214;2022-09-03T01:57:20;28;21;
47982;PMS5003;33751;50.816;-1.214;2022-09-03T02:00:00;25;23;
47982;PMS5003;33751;50.816;-1.214;2022-09-03T02:02:31;21;20;
47982;PMS5003;33751;50.816;-1.214;2022-09-03T02:04:59;28;22;
47982;PMS5003;33751;50.816;-1.214;2022-09-03T02:07:29;22;22;
47982;PMS5003;33751;50.816;-1.214;2022-09-03T02:09:58;30;22;
47982;PMS5003;33751;50.816;-1.214;2022-09-03T02:12:25;24;19;
47982;PMS5003;33751;50.816;-1.214;2022-09-03T02:14:57;31;26;
47982;PMS5003;33751;50.816;-1.214;2022-09-03T02:17:25;28;21;
47982;PMS5003;33751;50.816;-1.214;2022-09-03T02:19:51;24;21;
47982;PMS5003;33751;50.816;-1.214;2022-09-03T02:22:19;33;26;
47982;PMS5003;33751;50.816;-1.214;2022-09-03T02:24:46;38;26;
47982;PMS5003;33751;50.816;-1.214;2022-09-03T02:27:13;38;28;
47982;PMS5003;33751;50.816;-1.214;2022-09-03T02:29:41;35;28;
47982;PMS5003;33751;50.816;-1.214;2022-09-03T02:32:08;31;28;
47982;PMS5003;33751;50.816;-1.214;2022-09-03T02:34:35;27;25;
47982;PMS5003;33751;50.816;-1.214;2022-09-03T02:37:10;34;24;
47982;PMS5003;33751;50.816;-1.214;2022-09-03T02:39:38;29;21;
47982;PMS5003;33751;50.816;-1.214;2022-09-03T02:42:05;32;26;
47982;PMS5003;33751;50.816;-1.214;2022-09-03T02:44:34;26;25;
47982;PMS5003;33751;50.816;-1.214;2022-09-03T02:47:07;34;23;
47982;PMS5003;33751;50.816;-1.214;2022-09-03T02:49:34;25;23;
47982;PMS5003;33751;50.816;-1.214;2022-09-03T02:52:02;31;27;
47982;PMS5003;33751;50.816;-1.214;2022-09-03T02:54:31;30;24;
47982;PMS5003;33751;50.816;-1.214;2022-09-03T02:56:59;32;25;
47982;PMS5003;33751;50.816;-1.214;2022-09-03T02:59:25;28;25;
47982;PMS5003;33751;50.816;-1.214;2022-09-03T03:01:53;23;22;
47982;PMS5003;33751;50.816;-1.214;2022-09-03T03:04:21;34;25;
47982;PMS5003;33751;50.816;-1.214;2022-09-03T03:06:47;28;24;
47982;PMS5003;33751;50.816;-1.214;2022-09-03T03:09:15;34;26;
47982;PMS5003;33751;50.816;-1.214;2022-09-03T03:11:41;28;24;
47982;PMS5003;33751;50.816;-1.214;2022-09-03T03:14:09;37;29;
47982;PMS5003;33751;50.816;-1.214;2022-09-03T03:16:36;26;24;
47982;PMS5003;33751;50.816;-1.214;2022-09-03T03:19:02;29;22;
47982;PMS5003;33751;50.816;-1.214;2022-09-03T03:21:30;28;23;
47982;PMS5003;33751;50.816;-1.214;2022-09-03T03:23:57;29;26;
47982;PMS5003;33751;50.816;-1.214;2022-09-03T03:26:24;28;25;
47982;PMS5003;33751;50.816;-1.214;2022-09-03T03:28:54;37;27;
47982;PMS5003;33751;50.816;-1.214;2022-09-03T03:31:23;32;24;
47982;PMS5003;33751;50.816;-1.214;2022-09-03T03:33:51;38;29;
47982;PMS5003;33751;50.816;-1.214;2022-09-03T03:36:19;31;26;
47982;PMS5003;33751;50.816;-1.214;2022-09-03T03:38:46;37;28;
47982;PMS5003;33751;50.816;-1.214;2022-09-03T03:41:14;33;25;
47982;PMS5003;33751;50.816;-1.214;2022-09-03T03:43:43;28;27;
47982;PMS5003;33751;50.816;-1.214;2022-09-03T03:46:11;32;26;
47982;PMS5003;33751;50.816;-1.214;2022-09-03T03:48:39;39;31;
47982;PMS5003;33751;50.816;-1.214;2022-09-03T03:51:06;36;28;
47982;PMS5003;33751;50.816;-1.214;2022-09-03T03:53:35;37;30;
47982;PMS5003;33751;50.816;-1.214;2022-09-03T03:56:04;34;26;
47982;PMS5003;33751;50.816;-1.214;2022-09-03T03:58:33;41;28;
47982;PMS5003;33751;50.816;-1.214;2022-09-03T04:01:03;27;23;
47982;PMS5003;33751;50.816;-1.214;2022-09-03T04:03:31;32;26;
47982;PMS5003;33751;50.816;-1.214;2022-09-03T04:05:58;28;27;
47982;PMS5003;33751;50.816;-1.214;2022-09-03T04:08:24;35;29;
47982;PMS5003;33751;50.816;-1.214;2022-09-03T04:10:52;41;33;
47982;PMS5003;33751;50.816;-1.214;2022-09-03T04:13:19;30;29;
47982;PMS5003;33751;50.816;-1.214;2022-09-03T04:15:46;34;28;
47982;PMS5003;33751;50.816;-1.214;2022-09-03T04:18:13;44;33;
47982;PMS5003;33751;50.816;-1.214;2022-09-03T04:20:40;40;30;
47982;PMS5003;33751;50.816;-1.214;2022-09-03T04:23:06;35;30;
47982;PMS5003;33751;50.816;-1.214;2022-09-03T04:25:33;39;31;
47982;PMS5003;33751;50.816;-1.214;2022-09-03T04:28:00;36;25;
47982;PMS5003;33751;50.816;-1.214;2022-09-03T04:30:27;39;31;
47982;PMS5003;33751;50.816;-1.214;2022-09-03T04:32:54;31;26;
47982;PMS5003;33751;50.816;-1.214;2022-09-03T04:35:22;34;27;
47982;PMS5003;33751;50.816;-1.214;2022-09-03T04:37:51;34;30;
47982;PMS5003;33751;50.816;-1.214;2022-09-03T04:40:17;35;31;
47982;PMS5003;33751;50.816;-1.214;2022-09-03T04:42:44;45;33;
47982;PMS5003;33751;50.816;-1.214;2022-09-03T04:45:11;43;32;
47982;PMS5003;33751;50.816;-1.214;2022-09-03T04:47:38;36;27;
47982;PMS5003;33751;50.816;-1.214;2022-09-03T04:50:06;35;30;
47982;PMS5003;33751;50.816;-1.214;2022-09-03T04:52:34;38;28;
47982;PMS5003;33751;50.816;-1.214;2022-09-03T04:55:00;39;31;
47982;PMS5003;33751;50.816;-1.214;2022-09-03T04:57:27;41;30;
47982;PMS5003;33751;50.816;-1.214;2022-09-03T04:59:55;37;30;
47982;PMS5003;33751;50.816;-1.214;2022-09-03T05:02:21;37;31;
47982;PMS5003;33751;50.816;-1.214;2022-09-03T05:04:48;35;31;
47982;PMS5003;33751;50.816;-1.214;2022-09-03T05:07:15;32;27;
47982;PMS5003;33751;50.816;-1.214;2022-09-03T05:09:42;35;30;
47982;PMS5003;33751;50.816;-1.214;2022-09-03T05:12:10;40;35;
47982;PMS5003;33751;50.816;-1.214;2022-09-03T05:14:37;40;30;
47982;PMS5003;33751;50.816;-1.214;2022-09-03T05:17:03;38;30;
47982;PMS5003;33751;50.816;-1.214;2022-09-03T05:19:30;34;28;
47982;PMS5003;33751;50.816;-1.214;2022-09-03T05:21:57;40;31;
47982;PMS5003;33751;50.816;-1.214;2022-09-03T05:24:24;42;34;
47982;PMS5003;33751;50.816;-1.214;2022-09-03T05:26:50;39;29;
47982;PMS5003;33751;50.816;-1.214;2022-09-03T05:29:17;31;24;
47982;PMS5003;33751;50.816;-1.214;2022-09-03T05:31:45;23;21;
47982;PMS5003;33751;50.816;-1.214;2022-09-03T05:34:12;35;28;
47982;PMS5003;33751;50.816;-1.214;2022-09-03T05:36:39;33;28;
47982;PMS5003;33751;50.816;-1.214;2022-09-03T05:39:05;30;29;
47982;PMS5003;33751;50.816;-1.214;2022-09-03T05:41:33;34;26;
47982;PMS5003;33751;50.816;-1.214;2022-09-03T05:44:00;36;30;
47982;PMS5003;33751;50.816;-1.214;2022-09-03T05:46:28;34;22;
47982;PMS5003;33751;50.816;-1.214;2022-09-03T05:48:56;33;29;
47982;PMS5003;33751;50.816;-1.214;2022-09-03T05:51:23;41;31;
47982;PMS5003;33751;50.816;-1.214;2022-09-03T05:53:50;34;28;
47982;PMS5003;33751;50.816;-1.214;2022-09-03T05:56:17;33;27;
47982;PMS5003;33751;50.816;-1.214;2022-09-03T05:58:47;27;27;
47982;PMS5003;33751;50.816;-1.214;2022-09-03T06:01:16;35;29;
47982;PMS5003;33751;50.816;-1.214;2022-09-03T06:03:44;37;29;
47982;PMS5003;33751;50.816;-1.214;2022-09-03T06:06:12;34;30;
47982;PMS5003;33751;50.816;-1.214;2022-09-03T06:08:40;33;29;
47982;PMS5003;33751;50.816;-1.214;2022-09-03T06:11:07;32;30;
47982;PMS5003;33751;50.816;-1.214;2022-09-03T06:13:34;37;31;
47982;PMS5003;33751;50.816;-1.214;2022-09-03T06:16:02;37;33;
47982;PMS5003;33751;50.816;-1.214;2022-09-03T06:18:31;33;30;
47982;PMS5003;33751;50.816;-1.214;2022-09-03T06:20:59;32;28;
47982;PMS5003;33751;50.816;-1.214;2022-09-03T06:23:27;44;35;
47982;PMS5003;33751;50.816;-1.214;2022-09-03T06:25:58;44;32;
47982;PMS5003;33751;50.816;-1.214;2022-09-03T06:28:27;33;28;
47982;PMS5003;33751;50.816;-1.214;2022-09-03T06:30:56;40;31;
47982;PMS5003;33751;50.816;-1.214;2022-09-03T06:33:24;40;32;
47982;PMS5003;33751;50.816;-1.214;2022-09-03T06:35:52;37;32;
47982;PMS5003;33751;50.816;-1.214;2022-09-03T06:38:20;43;31;
47982;PMS5003;33751;50.816;-1.214;2022-09-03T06:40:50;42;32;
47982;PMS5003;33751;50.816;-1.214;2022-09-03T06:43:18;37;32;
47982;PMS5003;33751;50.816;-1.214;2022-09-03T06:45:51;39;34;
47982;PMS5003;33751;50.816;-1.214;2022-09-03T06:48:19;42;33;
47982;PMS5003;33751;50.816;-1.214;2022-09-03T06:50:52;39;31;
47982;PMS5003;33751;50.816;-1.214;2022-09-03T06:53:21;44;33;
47982;PMS5003;33751;50.816;-1.214;2022-09-03T06:55:51;42;33;
47982;PMS5003;33751;50.816;-1.214;2022-09-03T06:58:19;35;31;
47982;PMS5003;33751;50.816;-1.214;2022-09-03T07:00:47;42;33;
47982;PMS5003;33751;50.816;-1.214;2022-09-03T07:03:15;38;36;
47982;PMS5003;33751;50.816;-1.214;2022-09-03T07:05:42;38;33;
47982;PMS5003;33751;50.816;-1.214;2022-09-03T07:08:09;41;34;
47982;PMS5003;33751;50.816;-1.214;2022-09-03T07:10:36;44;33;
47982;PMS5003;33751;50.816;-1.214;2022-09-03T07:13:04;48;38;
47982;PMS5003;33751;50.816;-1.214;2022-09-03T07:15:30;39;33;
47982;PMS5003;33751;50.816;-1.214;2022-09-03T07:17:58;42;34;
47982;PMS5003;33751;50.816;-1.214;2022-09-03T07:20:25;45;36;
47982;PMS5003;33751;50.816;-1.214;2022-09-03T07:22:53;45;34;
47982;PMS5003;33751;50.816;-1.214;2022-09-03T07:25:21;47;35;
47982;PMS5003;33751;50.816;-1.214;2022-09-03T07:27:48;48;39;
47982;PMS5003;33751;50.816;-1.214;2022-09-03T07:30:15;35;29;
47982;PMS5003;33751;50.816;-1.214;2022-09-03T07:32:42;43;34;
47982;PMS5003;33751;50.816;-1.214;2022-09-03T07:35:09;47;37;
47982;PMS5003;33751;50.816;-1.214;2022-09-03T07:37:35;51;35;
47982;PMS5003;33751;50.816;-1.214;2022-09-03T07:40:03;45;38;
47982;PMS5003;33751;50.816;-1.214;2022-09-03T07:42:30;36;33;
47982;PMS5003;33751;50.816;-1.214;2022-09-03T07:44:57;46;33;
47982;PMS5003;33751;50.816;-1.214;2022-09-03T07:47:23;37;32;
47982;PMS5003;33751;50.816;-1.214;2022-09-03T07:49:50;43;33;
47982;PMS5003;33751;50.816;-1.214;2022-09-03T07:52:17;38;32;
47982;PMS5003;33751;50.816;-1.214;2022-09-03T07:54:43;51;39;
47982;PMS5003;33751;50.816;-1.214;2022-09-03T07:57:10;49;40;
47982;PMS5003;33751;50.816;-1.214;2022-09-03T07:59:37;40;34;
47982;PMS5003;33751;50.816;-1.214;2022-09-03T08:02:04;42;33;
47982;PMS5003;33751;50.816;-1.214;2022-09-03T08:04:31;38;32;
47982;PMS5003;33751;50.816;-1.214;2022-09-03T08:06:58;37;28;
47982;PMS5003;33751;50.816;-1.214;2022-09-03T08:09:25;38;26;
47982;PMS5003;33751;50.816;-1.214;2022-09-03T08:11:52;38;28;
47982;PMS5003;33751;50.816;-1.214;2022-09-03T08:14:19;34;29;
47982;PMS5003;33751;50.816;-1.214;2022-09-03T08:16:46;42;32;
47982;PMS5003;33751;50.816;-1.214;2022-09-03T08:19:13;37;30;
47982;PMS5003;33751;50.816;-1.214;2022-09-03T08:21:41;35;27;
47982;PMS5003;33751;50.816;-1.214;2022-09-03T08:24:08;23;17;
47982;PMS5003;33751;50.816;-1.214;2022-09-03T08:26:36;24;19;
47982;PMS5003;33751;50.816;-1.214;2022-09-03T08:29:04;27;18;
47982;PMS5003;33751;50.816;-1.214;2022-09-03T08:31:32;20;19;
47982;PMS5003;33751;50.816;-1.214;2022-09-03T08:34:01;21;18;
47982;PMS5003;33751;50.816;-1.214;2022-09-03T08:36:31;18;18;
47982;PMS5003;33751;50.816;-1.214;2022-09-03T08:39:00;29;21;
47982;PMS5003;33751;50.816;-1.214;2022-09-03T08:41:32;27;18;
47982;PMS5003;33751;50.816;-1.214;2022-09-03T08:44:14;26;20;
47982;PMS5003;33751;50.816;-1.214;2022-09-03T08:46:50;29;22;
47982;PMS5003;33751;50.816;-1.214;2022-09-03T08:49:21;32;22;
47982;PMS5003;33751;50.816;-1.214;2022-09-03T08:51:53;24;16;
47982;PMS5003;33751;50.816;-1.214;2022-09-03T08:54:26;26;19;
47982;PMS5003;33751;50.816;-1.214;2022-09-03T08:56:57;24;17;
47982;PMS5003;33751;50.816;-1.214;2022-09-03T08:59:27;18;16;
47982;PMS5003;33751;50.816;-1.214;2022-09-03T09:01:58;19;16;
47982;PMS5003;33751;50.816;-1.214;2022-09-03T09:04:38;20;17;
47982;PMS5003;33751;50.816;-1.214;2022-09-03T09:07:20;21;17;
47982;PMS5003;33751;50.816;-1.214;2022-09-03T09:09:55;22;18;
47982;PMS5003;33751;50.816;-1.214;2022-09-03T09:12:29;18;15;
47982;PMS5003;33751;50.816;-1.214;2022-09-03T09:15:05;17;14;
47982;PMS5003;33751;50.816;-1.214;2022-09-03T09:17:41;13;13;
47982;PMS5003;33751;50.816;-1.214;2022-09-03T09:20:17;13;13;
47982;PMS5003;33751;50.816;-1.214;2022-09-03T09:22:53;20;15;
47982;PMS5003;33751;50.816;-1.214;2022-09-03T09:25:24;19;17;
47982;PMS5003;33751;50.816;-1.214;2022-09-03T09:27:51;17;16;
47982;PMS5003;33751;50.816;-1.214;2022-09-03T09:30:23;24;16;
47982;PMS5003;33751;50.816;-1.214;2022-09-03T09:32:50;15;15;
47982;PMS5003;33751;50.816;-1.214;2022-09-03T09:35:17;20;15;
47982;PMS5003;33751;50.816;-1.214;2022-09-03T09:37:45;13;13;
47982;PMS5003;33751;50.816;-1.214;2022-09-03T09:40:21;19;13;
47982;PMS5003;33751;50.816;-1.214;2022-09-03T09:42:49;11;11;
47982;PMS5003;33751;50.816;-1.214;2022-09-03T09:45:17;13;11;
47982;PMS5003;33751;50.816;-1.214;2022-09-03T09:47:43;11;11;
47982;PMS5003;33751;50.816;-1.214;2022-09-03T09:50:16;9;9;
47982;PMS5003;33751;50.816;-1.214;2022-09-03T09:52:45;15;15;
47982;PMS5003;33751;50.816;-1.214;2022-09-03T09:55:13;11;9;
47982;PMS5003;33751;50.816;-1.214;2022-09-03T09:57:42;7;7;
47982;PMS5003;33751;50.816;-1.214;2022-09-03T10:00:10;12;12;
47982;PMS5003;33751;50.816;-1.214;2022-09-03T10:02:44;10;9;
47982;PMS5003;33751;50.816;-1.214;2022-09-03T10:05:14;9;8;
47982;PMS5003;33751;50.816;-1.214;2022-09-03T10:07:53;11;11;
47982;PMS5003;33751;50.816;-1.214;2022-09-03T10:10:21;10;8;
47982;PMS5003;33751;50.816;-1.214;2022-09-03T10:12:50;10;9;
47982;PMS5003;33751;50.816;-1.214;2022-09-03T10:15:24;11;10;
47982;PMS5003;33751;50.816;-1.214;2022-09-03T10:17:57;11;10;
47982;PMS5003;33751;50.816;-1.214;2022-09-03T10:20:32;9;9;
47982;PMS5003;33751;50.816;-1.214;2022-09-03T10:23:09;15;11;
47982;PMS5003;33751;50.816;-1.214;2022-09-03T10:25:41;13;11;
47982;PMS5003;33751;50.816;-1.214;2022-09-03T10:28:16;11;11;
47982;PMS5003;33751;50.816;-1.214;2022-09-03T10:30:48;9;9;
47982;PMS5003;33751;50.816;-1.214;2022-09-03T10:33:29;9;9;
47982;PMS5003;33751;50.816;-1.214;2022-09-03T10:36:06;12;8;
47982;PMS5003;33751;50.816;-1.214;2022-09-03T10:38:39;8;8;
47982;PMS5003;33751;50.816;-1.214;2022-09-03T10:41:12;9;9;
47982;PMS5003;33751;50.816;-1.214;2022-09-03T10:43:54;9;8;
47982;PMS5003;33751;50.816;-1.214;2022-09-03T10:46:32;9;9;
47982;PMS5003;33751;50.816;-1.214;2022-09-03T10:49:12;7;7;
47982;PMS5003;33751;50.816;-1.214;2022-09-03T10:51:50;8;8;
47982;PMS5003;33751;50.816;-1.214;2022-09-03T10:54:29;11;9;
47982;PMS5003;33751;50.816;-1.214;2022-09-03T10:57:02;18;13;
47982;PMS5003;33751;50.816;-1.214;2022-09-03T10:59:41;10;10;
47982;PMS5003;33751;50.816;-1.214;2022-09-03T11:02:28;15;13;
47982;PMS5003;33751;50.816;-1.214;2022-09-03T11:05:10;14;12;
47982;PMS5003;33751;50.816;-1.214;2022-09-03T11:07:42;9;9;
47982;PMS5003;33751;50.816;-1.214;2022-09-03T11:10:14;12;10;
47982;PMS5003;33751;50.816;-1.214;2022-09-03T11:12:47;15;11;
47982;PMS5003;33751;50.816;-1.214;2022-09-03T11:15:22;9;9;
47982;PMS5003;33751;50.816;-1.214;2022-09-03T11:17:53;15;13;
47982;PMS5003;33751;50.816;-1.214;2022-09-03T11:20:25;15;12;
47982;PMS5003;33751;50.816;-1.214;2022-09-03T11:22:53;11;11;
47982;PMS5003;33751;50.816;-1.214;2022-09-03T11:25:23;11;11;
47982;PMS5003;33751;50.816;-1.214;2022-09-03T11:27:58;17;12;
47982;PMS5003;33751;50.816;-1.214;2022-09-03T11:30:36;11;10;
47982;PMS5003;33751;50.816;-1.214;2022-09-03T11:33:16;13;10;
47982;PMS5003;33751;50.816;-1.214;2022-09-03T11:35:53;10;9;
47982;PMS5003;33751;50.816;-1.214;2022-09-03T11:38:21;15;11;
47982;PMS5003;33751;50.816;-1.214;2022-09-03T11:40:56;9;9;
47982;PMS5003;33751;50.816;-1.214;2022-09-03T11:43:26;17;9;
47982;PMS5003;33751;50.816;-1.214;2022-09-03T11:46:03;12;10;
47982;PMS5003;33751;50.816;-1.214;2022-09-03T11:48:36;12;10;
47982;PMS5003;33751;50.816;-1.214;2022-09-03T11:51:14;19;10;
47982;PMS5003;33751;50.816;-1.214;2022-09-03T11:53:52;14;11;
47982;PMS5003;33751;50.816;-1.214;2022-09-03T11:56:19;10;9;
47982;PMS5003;33751;50.816;-1.214;2022-09-03T11:58:46;13;10;
47982;PMS5003;33751;50.816;-1.214;2022-09-03T12:01:26;12;12;
47982;PMS5003;33751;50.816;-1.214;2022-09-03T12:03:56;13;12;
47982;PMS5003;33751;50.816;-1.214;2022-09-03T12:06:37;10;10;
47982;PMS5003;33751;50.816;-1.214;2022-09-03T12:09:19;10;10;
47982;PMS5003;33751;50.816;-1.214;2022-09-03T12:12:10;12;11;
47982;PMS5003;33751;50.816;-1.214;2022-09-03T12:14:51;9;9;
47982;PMS5003;33751;50.816;-1.214;2022-09-03T12:17:29;8;8;
47982;PMS5003;33751;50.816;-1.214;2022-09-03T12:20:02;9;9;
47982;PMS5003;33751;50.816;-1.214;2022-09-03T12:22:37;9;9;
47982;PMS5003;33751;50.816;-1.214;2022-09-03T12:25:08;10;10;
47982;PMS5003;33751;50.816;-1.214;2022-09-03T12:27:35;14;8;
47982;PMS5003;33751;50.816;-1.214;2022-09-03T12:30:03;7;7;
47982;PMS5003;33751;50.816;-1.214;2022-09-03T12:32:39;19;12;
47982;PMS5003;33751;50.816;-1.214;2022-09-03T12:35:09;10;10;
47982;PMS5003;33751;50.816;-1.214;2022-09-03T12:37:38;12;11;
47982;PMS5003;33751;50.816;-1.214;2022-09-03T12:40:14;11;9;
47982;PMS5003;33751;50.816;-1.214;2022-09-03T12:42:43;12;11;
47982;PMS5003;33751;50.816;-1.214;2022-09-03T12:45:10;9;9;
47982;PMS5003;33751;50.816;-1.214;2022-09-03T12:47:38;11;10;
47982;PMS5003;33751;50.816;-1.214;2022-09-03T12:50:07;12;8;
47982;PMS5003;33751;50.816;-1.214;2022-09-03T12:52:36;9;9;
47982;PMS5003;33751;50.816;-1.214;2022-09-03T12:55:06;11;10;
47982;PMS5003;33751;50.816;-1.214;2022-09-03T12:57:42;8;7;
47982;PMS5003;33751;50.816;-1.214;2022-09-03T13:00:13;10;7;
47982;PMS5003;33751;50.816;-1.214;2022-09-03T13:02:43;8;8;
47982;PMS5003;33751;50.816;-1.214;2022-09-03T13:05:17;9;9;
47982;PMS5003;33751;50.816;-1.214;2022-09-03T13:07:47;12;11;
47982;PMS5003;33751;50.816;-1.214;2022-09-03T13:10:22;9;8;
47982;PMS5003;33751;50.816;-1.214;2022-09-03T13:12:56;13;12;
47982;PMS5003;33751;50.816;-1.214;2022-09-03T13:15:25;12;9;
47982;PMS5003;33751;50.816;-1.214;2022-09-03T13:17:56;12;11;
47982;PMS5003;33751;50.816;-1.214;2022-09-03T13:20:36;12;10;
47982;PMS5003;33751;50.816;-1.214;2022-09-03T13:23:17;18;10;
47982;PMS5003;33751;50.816;-1.214;2022-09-03T13:26:00;10;10;
47982;PMS5003;33751;50.816;-1.214;2022-09-03T13:28:37;8;8;
47982;PMS5003;33751;50.816;-1.214;2022-09-03T13:31:22;12;9;
47982;PMS5003;33751;50.816;-1.214;2022-09-03T13:33:56;16;10;
47982;PMS5003;33751;50.816;-1.214;2022-09-03T13:36:29;10;10;
47982;PMS5003;33751;50.816;-1.214;2022-09-03T13:39:03;10;10;
47982;PMS5003;33751;50.816;-1.214;2022-09-03T13:41:42;11;11;
47982;PMS5003;33751;50.816;-1.214;2022-09-03T13:44:15;9;9;
47982;PMS5003;33751;50.816;-1.214;2022-09-03T13:46:45;11;9;
47982;PMS5003;33751;50.816;-1.214;2022-09-03T13:49:24;17;11;
47982;PMS5003;33751;50.816;-1.214;2022-09-03T13:51:59;11;11;
47982;PMS5003;33751;50.816;-1.214;2022-09-03T13:54:30;13;12;
47982;PMS5003;33751;50.816;-1.214;2022-09-03T13:57:04;15;14;
47982;PMS5003;33751;50.816;-1.214;2022-09-03T13:59:44;17;12;
47982;PMS5003;33751;50.816;-1.214;2022-09-03T14:02:19;12;12;
47982;PMS5003;33751;50.816;-1.214;2022-09-03T14:04:57;10;10;
47982;PMS5003;33751;50.816;-1.214;2022-09-03T14:07:37;13;11;
47982;PMS5003;33751;50.816;-1.214;2022-09-03T14:10:18;10;10;
47982;PMS5003;33751;50.816;-1.214;2022-09-03T14:12:49;10;10;
47982;PMS5003;33751;50.816;-1.214;2022-09-03T14:15:29;9;9;
47982;PMS5003;33751;50.816;-1.214;2022-09-03T14:18:11;9;9;
47982;PMS5003;33751;50.816;-1.214;2022-09-03T14:20:43;9;9;
47982;PMS5003;33751;50.816;-1.214;2022-09-03T14:23:20;8;7;
47982;PMS5003;33751;50.816;-1.214;2022-09-03T14:25:58;9;7;
47982;PMS5003;33751;50.816;-1.214;2022-09-03T14:28:29;9;9;
47982;PMS5003;33751;50.816;-1.214;2022-09-03T14:31:02;9;9;
47982;PMS5003;33751;50.816;-1.214;2022-09-03T14:33:38;15;9;
47982;PMS5003;33751;50.816;-1.214;2022-09-03T14:36:19;8;5;
47982;PMS5003;33751;50.816;-1.214;2022-09-03T14:38:56;11;9;
47982;PMS5003;33751;50.816;-1.214;2022-09-03T14:39:33;11;9;
47982;PMS5003;33751;50.816;-1.214;2022-09-03T14:42:23;7;6;
47982;PMS5003;33751;50.816;-1.214;2022-09-03T14:45:22;6;5;
47982;PMS5003;33751;50.816;-1.214;2022-09-03T14:48:03;4;4;
47982;PMS5003;33751;50.816;-1.214;2022-09-03T14:50:44;6;6;
47982;PMS5003;33751;50.816;-1.214;2022-09-03T14:53:30;6;6;
47982;PMS5003;33751;50.816;-1.214;2022-09-03T14:56:17;7;6;
47982;PMS5003;33751;50.816;-1.214;2022-09-03T14:59:04;5;4;
47982;PMS5003;33751;50.816;-1.214;2022-09-03T15:01:53;6;6;
47982;PMS5003;33751;50.816;-1.214;2022-09-03T15:04:44;6;6;
47982;PMS5003;33751;50.816;-1.214;2022-09-03T15:07:23;5;5;
47982;PMS5003;33751;50.816;-1.214;2022-09-03T15:10:01;9;9;
47982;PMS5003;33751;50.816;-1.214;2022-09-03T15:12:34;9;8;
47982;PMS5003;33751;50.816;-1.214;2022-09-03T15:15:06;14;6;
47982;PMS5003;33751;50.816;-1.214;2022-09-03T15:17:42;10;6;
47982;PMS5003;33751;50.816;-1.214;2022-09-03T15:20:20;6;5;
47982;PMS5003;33751;50.816;-1.214;2022-09-03T15:23:09;8;8;
47982;PMS5003;33751;50.816;-1.214;2022-09-03T15:25:49;10;10;
47982;PMS5003;33751;50.816;-1.214;2022-09-03T15:28:45;10;10;
47982;PMS5003;33751;50.816;-1.214;2022-09-03T15:31:21;7;7;
47982;PMS5003;33751;50.816;-1.214;2022-09-03T15:33:57;16;10;
47982;PMS5003;33751;50.816;-1.214;2022-09-03T15:36:33;11;10;
47982;PMS5003;33751;50.816;-1.214;2022-09-03T15:39:04;12;11;
47982;PMS5003;33751;50.816;-1.214;2022-09-03T15:41:39;9;8;
47982;PMS5003;33751;50.816;-1.214;2022-09-03T15:44:11;13;11;
47982;PMS5003;33751;50.816;-1.214;2022-09-03T15:46:46;11;11;
47982;PMS5003;33751;50.816;-1.214;2022-09-03T15:49:22;10;10;
47982;PMS5003;33751;50.816;-1.214;2022-09-03T15:52:05;12;11;
47982;PMS5003;33751;50.816;-1.214;2022-09-03T15:54:38;12;10;
47982;PMS5003;33751;50.816;-1.214;2022-09-03T15:57:14;9;9;
47982;PMS5003;33751;50.816;-1.214;2022-09-03T15:59:49;18;10;
47982;PMS5003;33751;50.816;-1.214;2022-09-03T16:02:23;9;7;
47982;PMS5003;33751;50.816;-1.214;2022-09-03T16:05:02;14;10;
47982;PMS5003;33751;50.816;-1.214;2022-09-03T16:07:40;15;11;
47982;PMS5003;33751;50.816;-1.214;2022-09-03T16:10:36;13;9;
47982;PMS5003;33751;50.816;-1.214;2022-09-03T16:13:19;7;7;
47982;PMS5003;33751;50.816;-1.214;2022-09-03T16:15:59;9;8;
47982;PMS5003;33751;50.816;-1.214;2022-09-03T16:18:31;6;6;
47982;PMS5003;33751;50.816;-1.214;2022-09-03T16:21:03;5;5;
47982;PMS5003;33751;50.816;-1.214;2022-09-03T16:23:37;7;7;
47982;PMS5003;33751;50.816;-1.214;2022-09-03T16:26:09;7;7;
47982;PMS5003;33751;50.816;-1.214;2022-09-03T16:28:42;5;5;
47982;PMS5003;33751;50.816;-1.214;2022-09-03T16:31:16;7;6;
47982;PMS5003;33751;50.816;-1.214;2022-09-03T16:33:56;4;4;
47982;PMS5003;33751;50.816;-1.214;2022-09-03T16:36:34;6;5;
47982;PMS5003;33751;50.816;-1.214;2022-09-03T16:39:13;6;6;
47982;PMS5003;33751;50.816;-1.214;2022-09-03T16:41:49;5;5;